Time;durP1;ratioP1;P1;durP2;ratioP2;P2;SDS_P1;SDS_P2;PMS_P1;PMS_P2;Temp;Humidity;BMP_temperature;BMP_pressure;BME280_temperature;BME280_humidity;BME280_pressure;Samples;Min_cycle;Max_cycle;Signal;HPM_P1;HPM_P2
2021/07/05 00:00:34;;;;;;;1.98;0.90;;;;;;;;;;7080771;27;20051;-80
2021/07/05 00:03:54;;;;;;;5.80;1.10;;;;;;;;;;7080686;27;20047;-80
2021/07/05 00:07:15;;;;;;;3.13;1.08;;;;;;;;;;7080641;27;20948;-80
2021/07/05 00:10:36;;;;;;;1.75;1.00;;;;;;;;;;7080622;27;20138;-80
2021/07/05 00:13:57;;;;;;;1.58;0.80;;;;;;;;;;7080039;27;20054;-80
2021/07/05 00:17:17;;;;;;;1.90;1.10;;;;;;;;;;7080582;27;20092;-80
2021/07/05 00:20:41;;;;;;;1.10;0.98;;;;;;;;;;7079994;27;20031;-80
2021/07/05 00:24:02;;;;;;;1.42;0.80;;;;;;;;;;7080502;27;20900;-81
2021/07/05 00:27:22;;;;;;;1.35;1.10;;;;;;;;;;7079893;27;20047;-80
2021/07/05 00:30:43;;;;;;;1.30;0.90;;;;;;;;;;7061884;27;20047;-80
2021/07/05 00:34:03;;;;;;;1.15;0.88;;;;;;;;;;7079068;27;20035;-79
2021/07/05 00:37:24;;;;;;;1.30;0.85;;;;;;;;;;7080385;27;20103;-79
2021/07/05 00:40:44;;;;;;;1.73;0.98;;;;;;;;;;7079901;27;20047;-79
2021/07/05 00:44:05;;;;;;;1.20;0.80;;;;;;;;;;7079492;27;20051;-79
2021/07/05 00:47:26;;;;;;;0.80;0.80;;;;;;;;;;7080124;27;20130;-79
2021/07/05 00:50:46;;;;;;;1.73;1.00;;;;;;;;;;7079534;27;20134;-80
2021/07/05 00:54:07;;;;;;;0.80;0.80;;;;;;;;;;7079640;27;20382;-79
2021/07/05 00:57:28;;;;;;;2.28;1.20;;;;;;;;;;7060763;27;20054;-79
2021/07/05 01:00:48;;;;;;;0.73;0.73;;;;;;;;;;7061066;27;20485;-79
2021/07/05 01:04:09;;;;;;;1.42;1.00;;;;;;;;;;7078999;27;20050;-80
2021/07/05 01:07:30;;;;;;;3.90;0.70;;;;;;;;;;7079543;27;20070;-80
2021/07/05 01:10:50;;;;;;;1.10;0.73;;;;;;;;;;7079113;27;20074;-79
2021/07/05 01:14:11;;;;;;;1.10;1.00;;;;;;;;;;7079289;27;20039;-80
2021/07/05 01:17:31;;;;;;;1.75;1.10;;;;;;;;;;7079084;27;20067;-79
2021/07/05 01:20:52;;;;;;;1.48;1.13;;;;;;;;;;7079206;27;20488;-79
2021/07/05 01:24:12;;;;;;;1.10;0.90;;;;;;;;;;7078846;27;20051;-79
2021/07/05 01:27:33;;;;;;;0.82;0.77;;;;;;;;;;7057815;22;20205;-79
2021/07/05 01:30:55;;;;;;;2.38;1.13;;;;;;;;;;7022625;28;20409;-80
2021/07/05 01:34:15;;;;;;;0.85;0.85;;;;;;;;;;7022391;28;20044;-79
2021/07/05 01:37:36;;;;;;;3.03;0.80;;;;;;;;;;7004372;28;20055;-79
2021/07/05 01:41:02;;;;;;;1.98;0.93;;;;;;;;;;7022492;28;20048;-79
2021/07/05 01:44:23;;;;;;;1.40;0.80;;;;;;;;;;7022656;28;20044;-80
2021/07/05 01:47:43;;;;;;;0.95;0.85;;;;;;;;;;7026657;28;20409;-83
2021/07/05 01:51:04;;;;;;;1.20;1.00;;;;;;;;;;7027259;28;20072;-80
2021/07/05 01:54:24;;;;;;;1.00;0.82;;;;;;;;;;7013081;28;20485;-80
2021/07/05 01:57:44;;;;;;;0.93;0.80;;;;;;;;;;7026913;28;20044;-79
2021/07/05 02:01:05;;;;;;;0.60;0.60;;;;;;;;;;7026963;28;20423;-79
2021/07/05 02:04:26;;;;;;;0.93;0.82;;;;;;;;;;7027185;28;20055;-80
2021/07/05 02:07:48;;;;;;;0.88;0.88;;;;;;;;;;7026563;28;20048;-80
2021/07/05 02:11:08;;;;;;;1.27;0.80;;;;;;;;;;7026947;28;20052;-79
2021/07/05 02:14:29;;;;;;;0.73;0.73;;;;;;;;;;7026596;28;20386;-79
2021/07/05 02:17:49;;;;;;;0.98;0.90;;;;;;;;;;7026761;28;20040;-80
2021/07/05 02:21:10;;;;;;;1.13;0.82;;;;;;;;;;7026473;28;20052;-80
2021/07/05 02:24:31;;;;;;;0.70;0.70;;;;;;;;;;7027089;28;20047;-79
2021/07/05 02:27:52;;;;;;;0.70;0.70;;;;;;;;;;7041018;28;20059;-80
2021/07/05 02:31:12;;;;;;;0.70;0.70;;;;;;;;;;7039447;28;20393;-80
2021/07/05 02:34:33;;;;;;;0.90;0.90;;;;;;;;;;7039132;28;20054;-80
2021/07/05 02:37:54;;;;;;;1.02;0.80;;;;;;;;;;7038216;28;20036;-79
2021/07/05 02:41:15;;;;;;;0.75;0.68;;;;;;;;;;7050244;28;20044;-80
2021/07/05 02:44:35;;;;;;;0.70;0.70;;;;;;;;;;7040242;28;20083;-79
2021/07/05 02:48:07;;;;;;;0.60;0.60;;;;;;;;;;7038277;28;20523;-79
2021/07/05 02:51:28;;;;;;;0.75;0.65;;;;;;;;;;7010071;28;20040;-80
2021/07/05 02:54:49;;;;;;;0.80;0.77;;;;;;;;;;7025655;28;20086;-80
2021/07/05 02:58:09;;;;;;;0.65;0.65;;;;;;;;;;7025538;28;20056;-79
2021/07/05 03:01:30;;;;;;;0.60;0.60;;;;;;;;;;7025868;28;20516;-80
2021/07/05 03:04:50;;;;;;;0.70;0.70;;;;;;;;;;7026756;28;20135;-79
2021/07/05 03:08:11;;;;;;;0.75;0.70;;;;;;;;;;7027361;28;20051;-80
2021/07/05 03:11:31;;;;;;;0.80;0.80;;;;;;;;;;7026683;28;20059;-80
2021/07/05 03:14:53;;;;;;;0.60;0.60;;;;;;;;;;7007569;28;20400;-80
2021/07/05 03:18:14;;;;;;;1.15;0.70;;;;;;;;;;7025800;28;20051;-79
2021/07/05 03:21:35;;;;;;;0.60;0.60;;;;;;;;;;7025243;28;20044;-79
2021/07/05 03:24:55;;;;;;;1.05;0.88;;;;;;;;;;7025154;28;20059;-80
2021/07/05 03:28:17;;;;;;;1.25;0.63;;;;;;;;;;7025563;28;20047;-79
2021/07/05 03:31:37;;;;;;;0.77;0.77;;;;;;;;;;7024787;28;20158;-79
2021/07/05 03:34:58;;;;;;;0.82;0.80;;;;;;;;;;7006632;28;20386;-80
2021/07/05 03:38:19;;;;;;;0.90;0.70;;;;;;;;;;7025057;28;20040;-80
2021/07/05 03:41:39;;;;;;;1.45;0.85;;;;;;;;;;7024890;28;20047;-80
2021/07/05 03:45:00;;;;;;;0.70;0.70;;;;;;;;;;7024436;28;20504;-80
2021/07/05 03:48:20;;;;;;;0.82;0.82;;;;;;;;;;7024988;28;20048;-80
2021/07/05 03:51:40;;;;;;;0.70;0.70;;;;;;;;;;7024183;28;20056;-80
2021/07/05 03:55:02;;;;;;;0.60;0.60;;;;;;;;;;7024572;28;20477;-80
2021/07/05 03:58:26;;;;;;;1.58;0.80;;;;;;;;;;7024176;28;20040;-80
2021/07/05 04:01:46;;;;;;;0.55;0.47;;;;;;;;;;7024862;28;20493;-80
2021/07/05 04:05:08;;;;;;;0.50;0.50;;;;;;;;;;7024035;28;20052;-79
2021/07/05 04:08:30;;;;;;;0.60;0.60;;;;;;;;;;7023893;28;20067;-79
2021/07/05 04:11:50;;;;;;;0.60;0.60;;;;;;;;;;7024080;28;20123;-79
2021/07/05 04:15:11;;;;;;;0.63;0.60;;;;;;;;;;7024390;28;20051;-79
2021/07/05 04:18:32;;;;;;;0.63;0.63;;;;;;;;;;7023931;28;20524;-80
2021/07/05 04:21:52;;;;;;;1.75;0.60;;;;;;;;;;7024234;28;20470;-79
2021/07/05 04:25:14;;;;;;;0.65;0.65;;;;;;;;;;7023960;28;20050;-80
2021/07/05 04:28:34;;;;;;;0.60;0.60;;;;;;;;;;7024057;28;20032;-80
2021/07/05 04:31:55;;;;;;;0.57;0.50;;;;;;;;;;7024142;28;20083;-80
2021/07/05 04:35:17;;;;;;;0.50;0.50;;;;;;;;;;7023488;28;20127;-80
2021/07/05 04:38:38;;;;;;;1.08;0.65;;;;;;;;;;7023985;28;20079;-79
2021/07/05 04:41:59;;;;;;;0.60;0.57;;;;;;;;;;7023331;28;20051;-80
2021/07/05 04:45:22;;;;;;;0.63;0.63;;;;;;;;;;7023634;28;20060;-80
2021/07/05 04:48:42;;;;;;;1.27;0.90;;;;;;;;;;7023266;28;20052;-80
2021/07/05 04:52:03;;;;;;;0.40;0.40;;;;;;;;;;7023779;28;20054;-79
2021/07/05 04:55:23;;;;;;;0.68;0.68;;;;;;;;;;7023343;28;20039;-78
2021/07/05 04:58:44;;;;;;;0.60;0.60;;;;;;;;;;7023539;28;20055;-79
2021/07/05 05:02:05;;;;;;;0.60;0.60;;;;;;;;;;6995172;28;20045;-79
2021/07/05 05:05:25;;;;;;;1.85;0.60;;;;;;;;;;7018529;28;20169;-80
2021/07/05 05:08:45;;;;;;;1.00;0.55;;;;;;;;;;7023096;28;20135;-80
2021/07/05 05:12:06;;;;;;;0.65;0.60;;;;;;;;;;7022911;28;21064;-80
2021/07/05 05:15:27;;;;;;;0.75;0.63;;;;;;;;;;7022213;28;20040;-79
2021/07/05 05:18:47;;;;;;;0.50;0.50;;;;;;;;;;7023008;28;20040;-78
2021/07/05 05:22:08;;;;;;;0.95;0.60;;;;;;;;;;7027618;28;20061;-78
2021/07/05 05:25:28;;;;;;;0.63;0.63;;;;;;;;;;7027738;28;20043;-78
2021/07/05 05:28:49;;;;;;;0.63;0.60;;;;;;;;;;7021507;28;20040;-77
2021/07/05 05:32:10;;;;;;;1.58;0.47;;;;;;;;;;7019544;28;20047;-78
2021/07/05 05:35:30;;;;;;;0.88;0.63;;;;;;;;;;7028344;28;20066;-77
2021/07/05 05:38:51;;;;;;;1.17;0.90;;;;;;;;;;7028644;28;20052;-77
2021/07/05 05:42:11;;;;;;;0.85;0.55;;;;;;;;;;7028267;28;20097;-78
2021/07/05 05:45:31;;;;;;;0.55;0.50;;;;;;;;;;7027589;28;20052;-77
2021/07/05 05:48:52;;;;;;;1.55;0.40;;;;;;;;;;7027435;28;20390;-78
2021/07/05 05:52:12;;;;;;;0.47;0.47;;;;;;;;;;7027513;28;20127;-78
2021/07/05 05:55:33;;;;;;;0.77;0.50;;;;;;;;;;7027215;28;20237;-77
2021/07/05 05:58:55;;;;;;;0.95;0.60;;;;;;;;;;7028178;28;20052;-77
2021/07/05 06:02:16;;;;;;;0.40;0.40;;;;;;;;;;7027218;28;20074;-78
2021/07/05 06:05:36;;;;;;;0.65;0.63;;;;;;;;;;7026457;28;20040;-77
2021/07/05 06:08:57;;;;;;;0.80;0.70;;;;;;;;;;7026455;28;20098;-77
2021/07/05 06:12:18;;;;;;;1.00;0.50;;;;;;;;;;7026590;28;20084;-78
2021/07/05 06:15:39;;;;;;;2.50;1.42;;;;;;;;;;7026256;28;20097;-78
2021/07/05 06:19:00;;;;;;;1.40;1.40;;;;;;;;;;7025651;28;20040;-78
2021/07/05 06:22:30;;;;;;;1.95;1.30;;;;;;;;;;7025500;28;20040;-77
2021/07/05 06:25:52;;;;;;;1.80;1.70;;;;;;;;;;7026332;28;20504;-77
2021/07/05 06:29:13;;;;;;;1.42;1.33;;;;;;;;;;7026272;28;20040;-78
2021/07/05 06:32:33;;;;;;;2.70;1.38;;;;;;;;;;7025572;28;20040;-78
2021/07/05 06:35:54;;;;;;;1.58;1.48;;;;;;;;;;7026152;28;20075;-78
2021/07/05 06:39:15;;;;;;;1.45;1.45;;;;;;;;;;7025860;28;20439;-78
2021/07/05 06:42:36;;;;;;;4.10;1.33;;;;;;;;;;7012523;28;20914;-77
2021/07/05 06:45:56;;;;;;;3.88;1.60;;;;;;;;;;7025732;28;20522;-78
2021/07/05 06:49:20;;;;;;;1.50;1.40;;;;;;;;;;7017546;28;20126;-77
2021/07/05 06:52:41;;;;;;;1.30;1.30;;;;;;;;;;7023150;28;20052;-78
2021/07/05 06:56:02;;;;;;;2.45;1.50;;;;;;;;;;7025576;28;20063;-80
2021/07/05 06:59:22;;;;;;;2.95;1.40;;;;;;;;;;7029718;28;20131;-79
2021/07/05 07:02:43;;;;;;;1.38;1.38;;;;;;;;;;7037177;28;20039;-79
2021/07/05 07:06:04;;;;;;;1.50;1.40;;;;;;;;;;7035028;28;20415;-80
2021/07/05 07:09:24;;;;;;;1.30;1.25;;;;;;;;;;7037619;28;20071;-80
2021/07/05 07:12:48;;;;;;;1.55;1.40;;;;;;;;;;7035239;28;20468;-80
2021/07/05 07:16:09;;;;;;;1.52;1.42;;;;;;;;;;7033304;28;20075;-79
2021/07/05 07:19:31;;;;;;;1.88;1.30;;;;;;;;;;7035809;28;20059;-80
2021/07/05 07:22:51;;;;;;;1.45;1.40;;;;;;;;;;7033859;28;20044;-81
2021/07/05 07:26:12;;;;;;;5.82;0.95;;;;;;;;;;7036619;28;20146;-81
2021/07/05 07:29:32;;;;;;;11.38;1.17;;;;;;;;;;7040640;28;20052;-78
2021/07/05 07:32:53;;;;;;;7.38;1.20;;;;;;;;;;7022679;28;20493;-79
2021/07/05 07:36:13;;;;;;;1.25;0.73;;;;;;;;;;7020952;28;20386;-80
2021/07/05 07:39:38;;;;;;;1.20;0.95;;;;;;;;;;7024433;28;20047;-80
2021/07/05 07:42:58;;;;;;;2.00;0.80;;;;;;;;;;7023580;28;20047;-83
2021/07/05 07:46:20;;;;;;;4.28;0.60;;;;;;;;;;7024829;28;20174;-83
2021/07/05 07:49:40;;;;;;;0.80;0.80;;;;;;;;;;7020165;28;20097;-83
2021/07/05 07:53:00;;;;;;;11.00;1.13;;;;;;;;;;7022096;28;20082;-83
2021/07/05 07:56:21;;;;;;;0.70;0.70;;;;;;;;;;7024666;28;20109;-83
2021/07/05 07:59:41;;;;;;;2.03;0.80;;;;;;;;;;7019510;28;20091;-83
2021/07/05 08:03:02;;;;;;;2.80;0.88;;;;;;;;;;6995888;28;20402;-83
2021/07/05 08:06:22;;;;;;;1.48;0.75;;;;;;;;;;7023925;28;20055;-84
2021/07/05 08:09:43;;;;;;;1.58;0.75;;;;;;;;;;7024353;28;20105;-83
2021/07/05 08:13:03;;;;;;;6.65;0.95;;;;;;;;;;7023964;28;20083;-83
2021/07/05 08:16:24;;;;;;;0.98;0.75;;;;;;;;;;7024714;28;20110;-84
2021/07/05 08:19:44;;;;;;;2.35;0.90;;;;;;;;;;7024491;28;20489;-84
2021/07/05 08:23:05;;;;;;;1.50;0.75;;;;;;;;;;7010091;28;20051;-83
2021/07/05 08:26:25;;;;;;;1.42;1.10;;;;;;;;;;7023630;28;20055;-84
2021/07/05 08:29:45;;;;;;;2.72;1.13;;;;;;;;;;7024028;28;20040;-83
2021/07/05 08:33:06;;;;;;;1.23;0.95;;;;;;;;;;7023242;28;20405;-83
2021/07/05 08:36:27;;;;;;;2.72;0.85;;;;;;;;;;7023322;28;20052;-83
2021/07/05 08:39:47;;;;;;;4.15;0.73;;;;;;;;;;7023177;28;20052;-83
2021/07/05 08:43:08;;;;;;;1.30;0.98;;;;;;;;;;7023057;28;20046;-84
2021/07/05 08:46:31;;;;;;;1.40;0.82;;;;;;;;;;7023300;28;20052;-87
2021/07/05 08:49:52;;;;;;;1.17;0.88;;;;;;;;;;7016605;28;20049;-86
2021/07/05 08:53:12;;;;;;;1.00;0.93;;;;;;;;;;7016247;28;20044;-85
2021/07/05 08:56:32;;;;;;;1.73;0.90;;;;;;;;;;7008532;28;20091;-84
2021/07/05 08:59:57;;;;;;;4.80;1.00;;;;;;;;;;7022479;28;20040;-84
2021/07/05 09:03:25;;;;;;;1.17;0.98;;;;;;;;;;7023491;28;20044;-84
2021/07/05 09:07:06;;;;;;;1.58;0.80;;;;;;;;;;6954152;28;20105;-84
2021/07/05 09:10:28;;;;;;;2.55;0.90;;;;;;;;;;6996854;28;20123;-84
2021/07/05 09:13:51;;;;;;;0.98;0.80;;;;;;;;;;6997100;28;20402;-84
2021/07/05 09:17:11;;;;;;;3.60;0.90;;;;;;;;;;6995404;28;20040;-84
2021/07/05 09:20:31;;;;;;;2.58;0.70;;;;;;;;;;6994640;28;20151;-84
2021/07/05 09:23:57;;;;;;;2.88;0.77;;;;;;;;;;6995280;28;20115;-84
2021/07/05 09:27:18;;;;;;;4.25;1.00;;;;;;;;;;6994451;28;20049;-84
2021/07/05 09:30:41;;;;;;;2.05;0.80;;;;;;;;;;6993414;28;20139;-84
2021/07/05 09:34:04;;;;;;;3.88;1.00;;;;;;;;;;6980647;28;20183;-84
2021/07/05 09:37:31;;;;;;;1.77;0.68;;;;;;;;;;6994254;28;20037;-84
2021/07/05 09:40:51;;;;;;;1.02;0.60;;;;;;;;;;6976090;28;20063;-85
2021/07/05 09:44:15;;;;;;;0.82;0.80;;;;;;;;;;6994443;28;20439;-84
2021/07/05 09:47:36;;;;;;;1.50;1.00;;;;;;;;;;6992773;28;20060;-84
2021/07/05 09:51:02;;;;;;;1.30;1.05;;;;;;;;;;6994550;28;20063;-84
2021/07/05 09:54:24;;;;;;;1.52;0.65;;;;;;;;;;6974502;28;20148;-84
2021/07/05 09:57:46;;;;;;;3.08;0.80;;;;;;;;;;6981794;28;20497;-83
2021/07/05 10:01:07;;;;;;;1.95;1.00;;;;;;;;;;6994712;28;20057;-83
2021/07/05 10:04:37;;;;;;;2.25;1.20;;;;;;;;;;6993353;28;20048;-85
2021/07/05 10:08:05;;;;;;;2.05;1.33;;;;;;;;;;6977265;28;20041;-84
2021/07/05 10:11:25;;;;;;;1.42;1.30;;;;;;;;;;6998616;28;20040;-85
2021/07/05 10:15:02;;;;;;;2.22;1.30;;;;;;;;;;6996266;28;20487;-83
2021/07/05 10:18:22;;;;;;;2.47;1.27;;;;;;;;;;6989083;28;20048;-83
2021/07/05 10:21:44;;;;;;;3.35;1.55;;;;;;;;;;6998579;28;20486;-83
2021/07/05 10:25:05;;;;;;;1.65;1.55;;;;;;;;;;6998287;28;20044;-83
2021/07/05 10:28:29;;;;;;;2.80;1.02;;;;;;;;;;6986715;28;20044;-83
2021/07/05 10:31:50;;;;;;;2.63;1.48;;;;;;;;;;6998168;28;20045;-83
2021/07/05 10:35:13;;;;;;;3.45;1.08;;;;;;;;;;6980488;28;20502;-83
2021/07/05 10:38:41;;;;;;;1.58;1.20;;;;;;;;;;6973167;28;20565;-83
2021/07/05 10:42:02;;;;;;;1.45;1.08;;;;;;;;;;6981201;28;20068;-83
2021/07/05 10:45:37;;;;;;;1.33;1.20;;;;;;;;;;6997876;28;20057;-83
2021/07/05 10:48:58;;;;;;;1.23;1.08;;;;;;;;;;6982433;28;20076;-83
2021/07/05 10:52:19;;;;;;;1.40;1.27;;;;;;;;;;6980385;28;20055;-79
2021/07/05 10:55:42;;;;;;;2.63;1.40;;;;;;;;;;6997746;28;20143;-83
2021/07/05 10:59:11;;;;;;;1.52;1.42;;;;;;;;;;6997965;28;20049;-83
2021/07/05 11:02:48;;;;;;;1.00;1.00;;;;;;;;;;6998243;28;20045;-83
2021/07/05 11:06:35;;;;;;;1.25;1.13;;;;;;;;;;6985314;28;20060;-80
2021/07/05 11:09:57;;;;;;;1.23;1.13;;;;;;;;;;6997634;28;20036;-80
2021/07/05 11:13:19;;;;;;;1.33;1.23;;;;;;;;;;6997497;28;20053;-81
2021/07/05 11:16:59;;;;;;;1.58;1.13;;;;;;;;;;6997210;28;20060;-81
2021/07/05 11:20:19;;;;;;;1.33;1.23;;;;;;;;;;6997397;28;20048;-81
2021/07/05 11:23:56;;;;;;;1.20;1.10;;;;;;;;;;6982784;28;20103;-81
2021/07/05 11:27:32;;;;;;;1.15;1.02;;;;;;;;;;6996645;28;20048;-80
2021/07/05 11:30:53;;;;;;;1.17;1.10;;;;;;;;;;6996539;28;20044;-79
2021/07/05 11:34:30;;;;;;;1.30;1.20;;;;;;;;;;6997491;28;20117;-78
2021/07/05 11:37:58;;;;;;;2.08;1.42;;;;;;;;;;6999143;28;20069;-78
2021/07/05 11:41:20;;;;;;;4.68;1.17;;;;;;;;;;6989465;28;20048;-78
2021/07/05 11:44:47;;;;;;;1.48;1.38;;;;;;;;;;6997943;28;20063;-78
2021/07/05 11:48:08;;;;;;;1.23;1.10;;;;;;;;;;6996977;28;20075;-79
2021/07/05 11:51:31;;;;;;;1.02;1.00;;;;;;;;;;6996226;28;20040;-79
2021/07/05 11:55:00;;;;;;;1.10;1.00;;;;;;;;;;6998030;28;20041;-79
2021/07/05 11:58:22;;;;;;;1.00;1.00;;;;;;;;;;6985684;28;20498;-78
2021/07/05 12:01:44;;;;;;;1.17;1.10;;;;;;;;;;6989482;28;20057;-78
2021/07/05 12:05:09;;;;;;;1.10;1.10;;;;;;;;;;6994373;28;20115;-79
2021/07/05 12:08:29;;;;;;;2.53;1.20;;;;;;;;;;6990225;28;20041;-78
2021/07/05 12:11:50;;;;;;;1.05;1.05;;;;;;;;;;6977461;28;20164;-78
2021/07/05 12:15:11;;;;;;;2.15;1.10;;;;;;;;;;6987367;28;20443;-79
2021/07/05 12:18:31;;;;;;;1.85;1.20;;;;;;;;;;6989084;28;20485;-78
2021/07/05 12:21:54;;;;;;;1.48;1.00;;;;;;;;;;6991833;28;20452;-78
2021/07/05 12:25:15;;;;;;;1.10;1.00;;;;;;;;;;6994459;28;20123;-78
2021/07/05 12:28:35;;;;;;;1.17;1.08;;;;;;;;;;6995081;28;20048;-81
2021/07/05 12:32:00;;;;;;;1.20;1.10;;;;;;;;;;6994595;28;20147;-81
2021/07/05 12:35:21;;;;;;;0.88;0.88;;;;;;;;;;6996431;28;20117;-80
2021/07/05 12:39:00;;;;;;;1.10;1.00;;;;;;;;;;6977553;28;20465;-79
2021/07/05 12:42:49;;;;;;;1.77;1.00;;;;;;;;;;6995940;28;20049;-80
2021/07/05 12:46:09;;;;;;;0.95;0.95;;;;;;;;;;6995570;28;20063;-80
2021/07/05 12:49:30;;;;;;;1.17;1.08;;;;;;;;;;6976688;28;20048;-80
2021/07/05 12:53:10;;;;;;;0.80;0.80;;;;;;;;;;6975926;28;20055;-78
2021/07/05 12:56:33;;;;;;;1.00;1.00;;;;;;;;;;6993960;28;20128;-78
2021/07/05 13:00:07;;;;;;;1.50;1.00;;;;;;;;;;6994642;28;20467;-78
2021/07/05 13:03:28;;;;;;;1.65;1.00;;;;;;;;;;6994466;28;20064;-78
2021/07/05 13:06:48;;;;;;;0.90;0.90;;;;;;;;;;6994119;28;20386;-78
2021/07/05 13:10:09;;;;;;;1.13;1.02;;;;;;;;;;6994262;28;20060;-78
2021/07/05 13:13:35;;;;;;;1.30;1.00;;;;;;;;;;6994226;28;20044;-78
2021/07/05 13:17:12;;;;;;;0.88;0.88;;;;;;;;;;6976309;28;20045;-77
2021/07/05 13:20:35;;;;;;;0.88;0.88;;;;;;;;;;6994267;28;20052;-79
2021/07/05 13:23:57;;;;;;;1.75;1.05;;;;;;;;;;6990702;28;20072;-79
2021/07/05 13:27:22;;;;;;;1.75;1.00;;;;;;;;;;7023705;22;20051;-78
2021/07/05 13:30:42;;;;;;;1.63;1.10;;;;;;;;;;7049508;28;20067;-80
2021/07/05 13:34:04;;;;;;;1.10;1.00;;;;;;;;;;7049975;28;20389;-79
2021/07/05 13:37:35;;;;;;;1.00;0.95;;;;;;;;;;7050473;28;20056;-78
2021/07/05 13:41:04;;;;;;;1.13;1.02;;;;;;;;;;7051616;28;20048;-78
2021/07/05 13:44:26;;;;;;;1.13;1.02;;;;;;;;;;7055565;28;20059;-82
2021/07/05 13:47:48;;;;;;;2.88;1.10;;;;;;;;;;7056574;28;20096;-79
2021/07/05 13:51:11;;;;;;;0.80;0.80;;;;;;;;;;7055965;28;20036;-80
2021/07/05 13:54:31;;;;;;;0.70;0.70;;;;;;;;;;7054823;28;20055;-79
2021/07/05 13:57:53;;;;;;;0.80;0.80;;;;;;;;;;7055187;28;20062;-79
2021/07/05 14:01:16;;;;;;;1.20;1.10;;;;;;;;;;7053752;28;20096;-79
2021/07/05 14:04:41;;;;;;;0.80;0.80;;;;;;;;;;7054740;28;20048;-80
2021/07/05 14:08:03;;;;;;;1.00;1.00;;;;;;;;;;7054441;28;20505;-79
2021/07/05 14:11:24;;;;;;;1.20;1.10;;;;;;;;;;7054013;28;20054;-80
2021/07/05 14:14:45;;;;;;;0.98;0.90;;;;;;;;;;7050992;28;20039;-79
2021/07/05 14:18:06;;;;;;;0.80;0.80;;;;;;;;;;7043039;28;20101;-80
2021/07/05 14:21:30;;;;;;;1.27;0.98;;;;;;;;;;7045513;28;20140;-79
2021/07/05 14:24:50;;;;;;;1.55;0.90;;;;;;;;;;7050305;28;20063;-80
2021/07/05 14:28:11;;;;;;;1.05;1.00;;;;;;;;;;7050634;28;20071;-79
2021/07/05 14:31:32;;;;;;;1.40;1.00;;;;;;;;;;7053611;28;20382;-78
2021/07/05 14:34:52;;;;;;;0.80;0.80;;;;;;;;;;7054213;28;20121;-79
2021/07/05 14:38:12;;;;;;;0.82;0.82;;;;;;;;;;7054015;28;20112;-79
2021/07/05 14:41:33;;;;;;;0.98;0.93;;;;;;;;;;7054133;28;20043;-79
2021/07/05 14:44:55;;;;;;;1.17;1.08;;;;;;;;;;7053873;28;20088;-79
2021/07/05 14:48:16;;;;;;;0.80;0.80;;;;;;;;;;7056002;28;20176;-79
2021/07/05 14:51:36;;;;;;;1.20;1.10;;;;;;;;;;7053660;28;20044;-79
2021/07/05 14:54:57;;;;;;;1.23;0.80;;;;;;;;;;7053449;28;20081;-78
2021/07/05 14:58:17;;;;;;;1.00;0.88;;;;;;;;;;7051665;28;20078;-79
2021/07/05 15:01:37;;;;;;;0.90;0.90;;;;;;;;;;7054319;28;20485;-77
2021/07/05 15:04:58;;;;;;;2.78;0.90;;;;;;;;;;7054712;28;20071;-77
2021/07/05 15:08:18;;;;;;;0.85;0.85;;;;;;;;;;7054183;28;20087;-77
2021/07/05 15:11:39;;;;;;;0.90;0.90;;;;;;;;;;7052544;28;20039;-77
2021/07/05 15:14:59;;;;;;;1.00;1.00;;;;;;;;;;7053629;28;20549;-78
2021/07/05 15:18:20;;;;;;;0.80;0.80;;;;;;;;;;7053408;28;20059;-78
2021/07/05 15:21:42;;;;;;;1.10;1.00;;;;;;;;;;7052732;28;20481;-78
2021/07/05 15:25:04;;;;;;;0.82;0.82;;;;;;;;;;7051873;28;20075;-77
2021/07/05 15:28:25;;;;;;;1.58;0.90;;;;;;;;;;7053046;28;20401;-78
2021/07/05 15:31:46;;;;;;;0.88;0.85;;;;;;;;;;7053264;28;20561;-77
2021/07/05 15:35:07;;;;;;;1.13;0.93;;;;;;;;;;7053325;28;20055;-78
2021/07/05 15:38:28;;;;;;;0.85;0.85;;;;;;;;;;7052679;28;20134;-78
2021/07/05 15:41:48;;;;;;;0.80;0.80;;;;;;;;;;7052855;28;20047;-77
2021/07/05 15:45:10;;;;;;;0.70;0.70;;;;;;;;;;7052832;28;20449;-77
2021/07/05 15:48:30;;;;;;;0.77;0.77;;;;;;;;;;7052692;28;20958;-78
2021/07/05 15:51:51;;;;;;;1.23;0.82;;;;;;;;;;7053021;28;20112;-77
2021/07/05 15:55:11;;;;;;;0.70;0.70;;;;;;;;;;7052087;28;20047;-77
2021/07/05 15:58:32;;;;;;;0.90;0.90;;;;;;;;;;7052704;28;20134;-78
2021/07/05 16:01:52;;;;;;;0.80;0.77;;;;;;;;;;7052189;28;20040;-78
2021/07/05 16:05:13;;;;;;;4.57;1.00;;;;;;;;;;7051238;28;20088;-77
2021/07/05 16:08:34;;;;;;;1.05;0.98;;;;;;;;;;7052146;28;20052;-77
2021/07/05 16:11:54;;;;;;;1.60;1.02;;;;;;;;;;7052663;28;20082;-77
2021/07/05 16:15:16;;;;;;;0.70;0.70;;;;;;;;;;7052035;28;20098;-77
2021/07/05 16:18:36;;;;;;;1.13;0.95;;;;;;;;;;7052388;28;20051;-77
2021/07/05 16:21:57;;;;;;;0.82;0.82;;;;;;;;;;7052297;28;20054;-77
2021/07/05 16:25:17;;;;;;;1.92;0.95;;;;;;;;;;7052037;28;20055;-78
2021/07/05 16:28:38;;;;;;;0.60;0.60;;;;;;;;;;7052116;28;20050;-77
2021/07/05 16:31:58;;;;;;;0.80;0.80;;;;;;;;;;7051882;28;20127;-78
2021/07/05 16:35:18;;;;;;;0.77;0.77;;;;;;;;;;7051628;28;20056;-78
2021/07/05 16:38:41;;;;;;;0.75;0.75;;;;;;;;;;7051801;28;20063;-78
2021/07/05 16:42:02;;;;;;;0.80;0.80;;;;;;;;;;7051155;28;20130;-77
2021/07/05 16:45:22;;;;;;;0.70;0.70;;;;;;;;;;7051521;28;20078;-77
2021/07/05 16:48:43;;;;;;;0.73;0.73;;;;;;;;;;7051642;28;20044;-77
2021/07/05 16:55:27;;;;;;;0.68;0.68;;;;;;;;;;7051300;28;20402;-79
2021/07/05 16:58:47;;;;;;;0.70;0.70;;;;;;;;;;7051201;28;20504;-79
2021/07/05 17:02:10;;;;;;;1.13;0.80;;;;;;;;;;7051322;28;20051;-78
2021/07/05 17:05:31;;;;;;;0.80;0.80;;;;;;;;;;7051116;28;20067;-79
2021/07/05 17:08:51;;;;;;;0.85;0.75;;;;;;;;;;7051170;28;20051;-78
2021/07/05 17:12:12;;;;;;;0.80;0.80;;;;;;;;;;7051284;28;20059;-78
2021/07/05 17:15:38;;;;;;;0.60;0.60;;;;;;;;;;7050051;28;20420;-79
2021/07/05 17:18:58;;;;;;;1.38;0.70;;;;;;;;;;7050479;28;20036;-78
2021/07/05 17:22:19;;;;;;;0.75;0.70;;;;;;;;;;7049502;28;20143;-78
2021/07/05 17:25:39;;;;;;;0.55;0.55;;;;;;;;;;7052212;28;20558;-79
2021/07/05 17:28:59;;;;;;;0.88;0.70;;;;;;;;;;7046153;28;20040;-79
2021/07/05 17:32:20;;;;;;;0.60;0.60;;;;;;;;;;7052042;28;20051;-78
2021/07/05 17:35:41;;;;;;;0.80;0.80;;;;;;;;;;7051137;28;20055;-79
2021/07/05 17:39:02;;;;;;;0.80;0.80;;;;;;;;;;7050072;28;20035;-79
2021/07/05 17:42:23;;;;;;;1.20;0.80;;;;;;;;;;7050613;28;20536;-79
2021/07/05 17:45:44;;;;;;;1.25;0.75;;;;;;;;;;7050923;28;20052;-79
2021/07/05 17:49:04;;;;;;;0.90;0.65;;;;;;;;;;7050360;28;20051;-79
2021/07/05 17:52:24;;;;;;;0.70;0.70;;;;;;;;;;7049706;28;20102;-79
2021/07/05 17:55:45;;;;;;;3.90;0.70;;;;;;;;;;7048021;28;20048;-78
2021/07/05 17:59:06;;;;;;;1.55;0.90;;;;;;;;;;7049412;28;20061;-79
2021/07/05 18:02:26;;;;;;;1.40;0.90;;;;;;;;;;7049628;28;20048;-79
2021/07/05 18:05:46;;;;;;;1.58;0.70;;;;;;;;;;7049252;28;20048;-78
2021/07/05 18:09:07;;;;;;;2.53;0.68;;;;;;;;;;7048870;28;20126;-79
2021/07/05 18:12:27;;;;;;;0.63;0.63;;;;;;;;;;7049818;28;20047;-79
2021/07/05 18:15:48;;;;;;;0.80;0.80;;;;;;;;;;7049607;28;20427;-79
2021/07/05 18:19:09;;;;;;;1.58;0.90;;;;;;;;;;7050265;28;20050;-79
2021/07/05 18:22:29;;;;;;;0.70;0.70;;;;;;;;;;7049471;28;20138;-79
2021/07/05 18:25:53;;;;;;;0.88;0.80;;;;;;;;;;7048325;28;20073;-79
2021/07/05 18:29:14;;;;;;;0.73;0.73;;;;;;;;;;7051703;28;20055;-80
2021/07/05 18:32:35;;;;;;;1.02;0.90;;;;;;;;;;7054744;28;20096;-79
2021/07/05 18:35:56;;;;;;;6.70;0.90;;;;;;;;;;7053036;28;20493;-80
2021/07/05 18:39:16;;;;;;;3.72;1.05;;;;;;;;;;7053156;28;21929;-80
2021/07/05 18:42:36;;;;;;;5.35;1.35;;;;;;;;;;7053306;28;20075;-79
2021/07/05 18:45:57;;;;;;;10.38;1.13;;;;;;;;;;7051425;28;20453;-81
2021/07/05 18:49:18;;;;;;;4.03;1.08;;;;;;;;;;7022802;28;20493;-81
2021/07/05 18:52:40;;;;;;;2.78;0.88;;;;;;;;;;7045710;28;20048;-82
2021/07/05 18:56:01;;;;;;;6.22;1.20;;;;;;;;;;7053381;28;20050;-82
2021/07/05 18:59:22;;;;;;;1.30;0.93;;;;;;;;;;7054225;28;20126;-81
2021/07/05 19:02:46;;;;;;;0.93;0.70;;;;;;;;;;7052853;28;20035;-81
2021/07/05 19:06:09;;;;;;;1.70;0.85;;;;;;;;;;7052136;28;20047;-81
2021/07/05 19:09:29;;;;;;;3.05;0.77;;;;;;;;;;7049844;28;20062;-83
2021/07/05 19:12:49;;;;;;;1.23;0.70;;;;;;;;;;7052461;28;20035;-82
2021/07/05 19:16:10;;;;;;;1.33;1.23;;;;;;;;;;7053064;28;20035;-82
2021/07/05 19:19:30;;;;;;;2.33;1.00;;;;;;;;;;7053475;28;20378;-81
2021/07/05 19:22:51;;;;;;;5.00;0.90;;;;;;;;;;7053797;28;20439;-81
2021/07/05 19:26:11;;;;;;;7.78;1.20;;;;;;;;;;7052840;28;20140;-81
2021/07/05 19:29:32;;;;;;;3.92;1.00;;;;;;;;;;7053409;28;20450;-81
2021/07/05 19:32:52;;;;;;;1.25;0.88;;;;;;;;;;7053157;28;20079;-81
2021/07/05 19:36:13;;;;;;;2.95;0.80;;;;;;;;;;7053170;28;20043;-81
2021/07/05 19:39:35;;;;;;;3.35;0.85;;;;;;;;;;7052626;28;20047;-81
2021/07/05 19:42:55;;;;;;;2.03;0.70;;;;;;;;;;7053464;28;20039;-79
2021/07/05 19:46:16;;;;;;;0.75;0.75;;;;;;;;;;7053147;28;20042;-80
2021/07/05 19:49:36;;;;;;;1.27;0.85;;;;;;;;;;7034087;28;20039;-79
2021/07/05 19:52:57;;;;;;;0.80;0.80;;;;;;;;;;7052706;28;20092;-80
2021/07/05 19:56:17;;;;;;;1.20;0.77;;;;;;;;;;7053666;28;20080;-80
2021/07/05 19:59:38;;;;;;;0.90;0.85;;;;;;;;;;7053558;28;20040;-80
2021/07/05 20:02:58;;;;;;;2.63;0.70;;;;;;;;;;7053136;28;20511;-81
2021/07/05 20:06:18;;;;;;;1.25;0.60;;;;;;;;;;7053137;28;20400;-82
2021/07/05 20:09:39;;;;;;;1.10;0.90;;;;;;;;;;7053194;28;20044;-81
2021/07/05 20:12:59;;;;;;;2.05;0.77;;;;;;;;;;7052868;28;20078;-80